Terminal Aerodrome Forecast
Issued by NWS

Home | Current Version | Previous Version | Text Only | Print | Product List | Glossary On
Versions: 1 2 3 4 5 6 7 8 9 10 11 12 13
000
FTUS44 KOUN 031926 AAA
TAFHBR
TAF AMD
KHBR 031926Z 0319/0418 25009KT P6SM VCSH BKN080
     FM032130 25009KT P6SM SCT100
     FM040800 31008KT P6SM SCT250
     FM041500 34012G18KT P6SM SKC=

USA.gov is the U.S. government's official web portal to all federal, state and local government web resources and services.